Time;durP1;ratioP1;P1;durP2;ratioP2;P2;SDS_P1;SDS_P2;PMS_P1;PMS_P2;Temp;Humidity;BMP_temperature;BMP_pressure;BME280_temperature;BME280_humidity;BME280_pressure;Samples;Min_cycle;Max_cycle;Signal;HPM_P1;HPM_P2
2022/03/20 00:00:46;;;;;;;;;;;19.00;49.10;;;;;;5039015;28;19920;-57
2022/03/20 00:03:12;;;;;;;;;;;18.90;49.10;;;;;;5039261;28;19959;-57
2022/03/20 00:05:39;;;;;;;;;;;19.00;49.10;;;;;;5039963;28;20409;-53
2022/03/20 00:08:08;;;;;;;;;;;18.90;49.00;;;;;;5039464;28;19920;-53
2022/03/20 00:10:34;;;;;;;;;;;18.90;48.90;;;;;;5039938;28;19913;-55
2022/03/20 00:13:00;;;;;;;;;;;18.90;49.00;;;;;;5040330;28;19920;-53
2022/03/20 00:15:27;;;;;;;;;;;18.90;48.80;;;;;;5039685;28;19916;-56
2022/03/20 00:17:53;;;;;;;;;;;18.90;48.90;;;;;;5038980;28;19928;-57
2022/03/20 00:20:19;;;;;;;;;;;18.90;48.80;;;;;;5039159;28;20168;-56
2022/03/20 00:22:44;;;;;;;;;;;18.80;48.80;;;;;;5039371;28;20495;-57
2022/03/20 00:25:11;;;;;;;;;;;18.80;48.80;;;;;;5040926;28;19917;-55
2022/03/20 00:27:37;;;;;;;;;;;18.80;48.80;;;;;;5043463;28;19912;-57
2022/03/20 00:30:02;;;;;;;;;;;18.80;48.80;;;;;;5042839;28;19948;-56
2022/03/20 00:32:28;;;;;;;;;;;18.80;48.80;;;;;;5040032;28;20354;-56
2022/03/20 00:34:57;;;;;;;;;;;18.80;48.80;;;;;;5039498;28;19924;-55
2022/03/20 00:37:22;;;;;;;;;;;18.80;48.80;;;;;;5054404;28;19936;-57
2022/03/20 00:39:47;;;;;;;;;;;18.70;48.70;;;;;;5039145;28;19913;-56
2022/03/20 00:42:13;;;;;;;;;;;18.80;48.90;;;;;;5039345;28;19974;-55
2022/03/20 00:44:38;;;;;;;;;;;18.70;48.80;;;;;;5054325;28;19920;-56
2022/03/20 00:47:04;;;;;;;;;;;18.70;49.00;;;;;;5037035;28;19913;-57
2022/03/20 00:49:30;;;;;;;;;;;18.60;48.90;;;;;;5038842;28;20513;-56
2022/03/20 00:51:56;;;;;;;;;;;18.60;49.00;;;;;;5021184;28;20309;-56
2022/03/20 00:54:21;;;;;;;;;;;18.60;49.00;;;;;;5038152;28;19916;-57
2022/03/20 00:56:47;;;;;;;;;;;18.50;49.10;;;;;;5020750;28;19917;-55
2022/03/20 00:59:12;;;;;;;;;;;18.60;49.20;;;;;;5038165;28;19913;-57
2022/03/20 01:01:37;;;;;;;;;;;18.50;49.20;;;;;;5038328;28;19913;-56
2022/03/20 01:04:03;;;;;;;;;;;18.50;49.30;;;;;;5038311;28;20324;-55
2022/03/20 01:06:28;;;;;;;;;;;18.50;49.10;;;;;;5039527;28;19944;-56
2022/03/20 01:08:54;;;;;;;;;;;18.50;49.80;;;;;;5039126;28;19912;-55
2022/03/20 01:11:19;;;;;;;;;;;18.50;49.00;;;;;;5039415;28;19927;-55
2022/03/20 01:13:45;;;;;;;;;;;18.50;49.40;;;;;;5021194;28;19913;-56
2022/03/20 01:16:10;;;;;;;;;;;18.50;49.50;;;;;;5039274;28;20472;-58
2022/03/20 01:18:36;;;;;;;;;;;18.50;49.50;;;;;;5038499;28;20378;-58
2022/03/20 01:21:01;;;;;;;;;;;18.50;49.50;;;;;;5039696;28;20366;-54
2022/03/20 01:23:27;;;;;;;;;;;18.40;49.50;;;;;;5038605;28;19920;-58
2022/03/20 01:25:52;;;;;;;;;;;18.40;49.40;;;;;;5039095;28;19956;-57
2022/03/20 01:28:18;;;;;;;;;;;18.40;49.60;;;;;;5038419;28;19920;-56
2022/03/20 01:30:44;;;;;;;;;;;18.40;49.70;;;;;;5038589;28;20017;-55
2022/03/20 01:33:09;;;;;;;;;;;18.40;49.90;;;;;;5037000;28;20389;-57
2022/03/20 01:35:35;;;;;;;;;;;18.40;49.80;;;;;;5040774;28;20012;-57
2022/03/20 01:38:01;;;;;;;;;;;18.30;49.70;;;;;;5046678;28;19997;-57
2022/03/20 01:40:26;;;;;;;;;;;18.40;49.80;;;;;;5042464;28;19983;-56
2022/03/20 01:42:51;;;;;;;;;;;18.30;49.80;;;;;;5042496;28;19924;-56
2022/03/20 01:45:18;;;;;;;;;;;18.40;49.90;;;;;;5026086;28;19936;-56
2022/03/20 01:47:47;;;;;;;;;;;18.40;49.70;;;;;;5048626;28;20012;-57
2022/03/20 01:50:16;;;;;;;;;;;18.30;49.70;;;;;;5045364;28;19919;-57
2022/03/20 01:52:42;;;;;;;;;;;18.30;49.80;;;;;;5021841;28;19918;-57
2022/03/20 01:55:08;;;;;;;;;;;18.30;49.80;;;;;;5004369;28;20012;-55
2022/03/20 01:57:37;;;;;;;;;;;18.30;49.70;;;;;;5039735;28;19920;-57
2022/03/20 02:00:04;;;;;;;;;;;18.40;49.90;;;;;;5042039;28;19916;-57
2022/03/20 02:02:29;;;;;;;;;;;18.30;49.80;;;;;;5041042;28;20670;-56
2022/03/20 02:04:54;;;;;;;;;;;18.30;49.90;;;;;;5042030;28;19919;-56
2022/03/20 02:07:22;;;;;;;;;;;18.30;49.70;;;;;;5041462;28;19924;-54
2022/03/20 02:09:47;;;;;;;;;;;18.20;49.90;;;;;;5041073;28;19913;-54
2022/03/20 02:12:13;;;;;;;;;;;18.10;50.00;;;;;;5041188;28;19920;-56
2022/03/20 02:14:39;;;;;;;;;;;18.00;50.10;;;;;;5042038;28;19919;-57
2022/03/20 02:17:05;;;;;;;;;;;18.00;50.10;;;;;;5042026;28;19944;-56
2022/03/20 02:19:30;;;;;;;;;;;17.90;50.20;;;;;;5041712;28;19956;-57
2022/03/20 02:21:56;;;;;;;;;;;17.90;50.30;;;;;;5040166;28;19913;-57
2022/03/20 02:24:36;;;;;;;;;;;17.90;50.30;;;;;;5041566;28;19917;-56
2022/03/20 02:27:24;;;;;;;;;;;17.90;50.40;;;;;;5041282;28;19913;-55
2022/03/20 02:29:52;;;;;;;;;;;17.90;50.40;;;;;;5041094;28;19917;-55
2022/03/20 02:32:18;;;;;;;;;;;17.80;50.40;;;;;;5041034;28;19959;-57
2022/03/20 02:34:47;;;;;;;;;;;17.80;50.30;;;;;;5023302;28;20040;-57
2022/03/20 02:37:12;;;;;;;;;;;17.80;50.40;;;;;;5040939;28;20341;-54
2022/03/20 02:39:38;;;;;;;;;;;17.80;50.30;;;;;;5023206;28;19978;-57
2022/03/20 02:42:04;;;;;;;;;;;17.90;50.50;;;;;;5041195;28;20425;-57
2022/03/20 02:44:49;;;;;;;;;;;17.90;50.20;;;;;;5041170;28;20027;-55
2022/03/20 02:49:53;;;;;;;;;;;18.10;49.90;;;;;;4993500;28;19988;-54
2022/03/20 02:52:20;;;;;;;;;;;18.10;49.80;;;;;;5001143;28;19917;-55
2022/03/20 02:54:46;;;;;;;;;;;18.20;49.80;;;;;;5001518;28;19917;-52
2022/03/20 02:57:11;;;;;;;;;;;18.20;49.80;;;;;;5002106;28;19913;-53
2022/03/20 02:59:37;;;;;;;;;;;18.10;49.70;;;;;;5001527;28;20271;-54
2022/03/20 03:02:02;;;;;;;;;;;18.20;49.60;;;;;;5001594;28;19918;-56
2022/03/20 03:04:28;;;;;;;;;;;18.30;49.50;;;;;;5001480;28;19921;-55
2022/03/20 03:06:53;;;;;;;;;;;18.30;49.40;;;;;;5001478;28;19921;-55
2022/03/20 03:12:04;;;;;;;;;;;18.40;49.20;;;;;;4992084;28;19948;-51
2022/03/20 03:17:13;;;;;;;;;;;18.40;49.30;;;;;;5000294;28;20043;-56
2022/03/20 03:19:39;;;;;;;;;;;18.40;49.20;;;;;;5000725;28;19917;-54
2022/03/20 03:22:04;;;;;;;;;;;18.40;49.20;;;;;;5000874;28;19913;-53
2022/03/20 03:24:30;;;;;;;;;;;18.50;49.10;;;;;;5000979;28;19975;-55
2022/03/20 03:26:55;;;;;;;;;;;18.50;49.10;;;;;;5000061;28;20226;-54
2022/03/20 03:29:21;;;;;;;;;;;18.50;49.00;;;;;;5000317;28;19918;-51
2022/03/20 03:31:46;;;;;;;;;;;18.50;48.90;;;;;;4998743;28;19917;-51
2022/03/20 03:36:56;;;;;;;;;;;18.60;48.90;;;;;;5000852;28;19960;-55
2022/03/20 03:39:22;;;;;;;;;;;18.60;48.80;;;;;;5000136;28;19913;-54
2022/03/20 03:41:51;;;;;;;;;;;18.60;48.80;;;;;;5000021;28;19917;-54
2022/03/20 03:44:17;;;;;;;;;;;18.60;48.80;;;;;;5000585;28;19913;-51
2022/03/20 03:46:43;;;;;;;;;;;18.70;48.80;;;;;;5000559;28;19918;-52
2022/03/20 03:49:08;;;;;;;;;;;18.70;48.70;;;;;;4999643;28;20440;-53
2022/03/20 03:51:34;;;;;;;;;;;18.70;48.60;;;;;;5000533;28;20212;-56
2022/03/20 03:53:59;;;;;;;;;;;18.80;48.60;;;;;;4999510;28;21458;-51
2022/03/20 03:56:25;;;;;;;;;;;18.70;48.50;;;;;;5000146;28;19921;-54
2022/03/20 03:58:50;;;;;;;;;;;18.80;48.60;;;;;;4999614;28;19913;-54
2022/03/20 04:01:15;;;;;;;;;;;18.80;48.60;;;;;;4999071;28;20305;-52
2022/03/20 04:03:41;;;;;;;;;;;18.70;48.50;;;;;;4999514;28;19963;-53
2022/03/20 04:06:07;;;;;;;;;;;18.80;48.60;;;;;;4999862;28;19918;-52
2022/03/20 04:08:34;;;;;;;;;;;18.70;48.50;;;;;;4998203;28;19918;-54
2022/03/20 04:11:00;;;;;;;;;;;18.70;48.50;;;;;;4981963;28;19922;-55
2022/03/20 04:13:25;;;;;;;;;;;18.70;48.50;;;;;;5000138;28;20442;-53
2022/03/20 04:15:52;;;;;;;;;;;18.70;48.50;;;;;;5000553;28;20404;-51
2022/03/20 04:18:17;;;;;;;;;;;18.70;48.50;;;;;;4998498;28;19913;-52
2022/03/20 04:20:43;;;;;;;;;;;18.70;48.60;;;;;;4998345;28;19918;-53
2022/03/20 04:25:53;;;;;;;;;;;18.70;48.60;;;;;;5000177;28;20178;-52
2022/03/20 04:28:19;;;;;;;;;;;18.60;48.60;;;;;;4998196;28;20337;-51
2022/03/20 04:30:45;;;;;;;;;;;18.70;48.60;;;;;;4999702;28;19913;-55
2022/03/20 04:33:11;;;;;;;;;;;18.60;48.50;;;;;;4999785;28;19975;-54
2022/03/20 04:35:36;;;;;;;;;;;18.60;48.50;;;;;;5000590;28;19917;-54
2022/03/20 04:38:02;;;;;;;;;;;18.60;48.60;;;;;;5000067;28;19917;-53
2022/03/20 04:40:27;;;;;;;;;;;18.60;48.60;;;;;;4999326;28;20640;-54
2022/03/20 04:42:53;;;;;;;;;;;18.60;48.60;;;;;;4999116;28;19922;-55
2022/03/20 04:45:18;;;;;;;;;;;18.60;48.50;;;;;;4999549;28;19913;-51
2022/03/20 04:58:43;;;;;;;;;;;18.60;48.60;;;;;;4998150;28;19986;-51
2022/03/20 05:01:09;;;;;;;;;;;18.60;48.60;;;;;;4999535;28;20514;-55
2022/03/20 05:03:35;;;;;;;;;;;18.50;48.60;;;;;;4996855;28;19914;-51
2022/03/20 05:06:02;;;;;;;;;;;18.60;48.60;;;;;;4999475;28;19913;-54
2022/03/20 05:08:28;;;;;;;;;;;18.60;48.60;;;;;;4998255;28;20034;-54
2022/03/20 05:13:37;;;;;;;;;;;18.60;48.60;;;;;;5002728;28;20556;-51
2022/03/20 05:16:04;;;;;;;;;;;18.50;48.60;;;;;;5004600;28;19917;-51
2022/03/20 05:18:29;;;;;;;;;;;18.60;48.60;;;;;;5003449;28;20375;-53
2022/03/20 05:20:55;;;;;;;;;;;18.50;48.50;;;;;;5003568;28;19929;-51
2022/03/20 05:23:20;;;;;;;;;;;18.60;48.50;;;;;;5002849;28;19944;-51
2022/03/20 05:25:47;;;;;;;;;;;18.50;48.50;;;;;;5003209;28;19914;-53
2022/03/20 05:28:12;;;;;;;;;;;18.50;48.50;;;;;;5003139;28;19920;-52
2022/03/20 05:30:38;;;;;;;;;;;18.50;48.50;;;;;;5002379;28;19917;-55
2022/03/20 05:33:03;;;;;;;;;;;18.50;48.50;;;;;;4985198;28;19922;-52
2022/03/20 05:35:29;;;;;;;;;;;18.50;48.50;;;;;;5003020;28;20367;-51
2022/03/20 05:37:54;;;;;;;;;;;18.50;48.50;;;;;;5002263;28;20004;-53
2022/03/20 05:40:20;;;;;;;;;;;18.50;48.50;;;;;;5002669;28;19918;-54
2022/03/20 05:42:45;;;;;;;;;;;18.50;48.50;;;;;;4984664;28;19913;-54
2022/03/20 05:45:11;;;;;;;;;;;18.50;48.40;;;;;;5002644;28;19921;-52
2022/03/20 05:47:37;;;;;;;;;;;18.50;48.40;;;;;;5002948;28;19913;-53
2022/03/20 05:50:03;;;;;;;;;;;18.50;48.50;;;;;;5003515;28;19961;-53
2022/03/20 05:52:31;;;;;;;;;;;18.50;48.50;;;;;;5002415;28;19993;-52
2022/03/20 05:54:57;;;;;;;;;;;18.50;48.50;;;;;;5000580;28;19951;-53
2022/03/20 06:00:07;;;;;;;;;;;18.50;48.50;;;;;;5002463;28;20610;-55
2022/03/20 06:02:32;;;;;;;;;;;18.50;48.50;;;;;;5002962;28;19913;-50
2022/03/20 06:04:57;;;;;;;;;;;18.50;48.50;;;;;;5002349;28;19917;-51
2022/03/20 06:07:23;;;;;;;;;;;18.60;48.50;;;;;;5000344;28;20316;-55
2022/03/20 06:09:48;;;;;;;;;;;18.50;48.30;;;;;;5001990;28;19921;-54
2022/03/20 06:12:14;;;;;;;;;;;18.60;48.40;;;;;;5002777;28;19918;-55
2022/03/20 06:14:39;;;;;;;;;;;18.60;48.50;;;;;;5002845;28;19913;-52
2022/03/20 06:17:05;;;;;;;;;;;18.60;48.60;;;;;;5002907;28;20666;-51
2022/03/20 06:19:31;;;;;;;;;;;18.60;48.50;;;;;;5002212;28;19917;-55
2022/03/20 06:21:56;;;;;;;;;;;18.70;48.60;;;;;;5001911;28;19918;-53
2022/03/20 06:24:22;;;;;;;;;;;18.60;48.60;;;;;;5000809;28;19921;-53
2022/03/20 06:26:47;;;;;;;;;;;18.60;48.60;;;;;;5001832;28;19917;-55
2022/03/20 06:29:13;;;;;;;;;;;18.70;48.80;;;;;;5001964;28;19918;-56
2022/03/20 06:31:38;;;;;;;;;;;18.70;48.70;;;;;;5001411;28;19940;-55
2022/03/20 06:34:04;;;;;;;;;;;18.70;48.70;;;;;;5002172;28;20005;-56
2022/03/20 06:36:30;;;;;;;;;;;18.70;48.60;;;;;;5001597;28;19917;-54
2022/03/20 06:38:56;;;;;;;;;;;18.70;48.60;;;;;;5001585;28;19913;-54
2022/03/20 06:41:21;;;;;;;;;;;18.70;48.60;;;;;;5002280;28;19913;-56
2022/03/20 06:43:47;;;;;;;;;;;18.70;48.50;;;;;;4984241;28;19921;-56
2022/03/20 06:46:12;;;;;;;;;;;18.70;48.60;;;;;;5002347;28;20409;-54
2022/03/20 06:48:38;;;;;;;;;;;18.70;48.50;;;;;;5001315;28;19976;-53
2022/03/20 06:51:04;;;;;;;;;;;18.70;48.40;;;;;;5001639;28;19914;-54
2022/03/20 06:53:29;;;;;;;;;;;18.70;48.40;;;;;;5001521;28;19917;-53
2022/03/20 06:55:55;;;;;;;;;;;18.70;48.30;;;;;;5001506;28;19953;-55
2022/03/20 06:58:22;;;;;;;;;;;18.70;48.20;;;;;;5001626;28;19924;-55
2022/03/20 07:00:48;;;;;;;;;;;18.70;48.20;;;;;;5001647;28;19964;-55
2022/03/20 07:03:13;;;;;;;;;;;18.70;48.20;;;;;;5001313;28;20350;-53
2022/03/20 07:05:39;;;;;;;;;;;18.80;48.10;;;;;;5001340;28;19917;-55
2022/03/20 07:08:05;;;;;;;;;;;18.80;48.20;;;;;;5001909;28;19920;-56
2022/03/20 07:10:30;;;;;;;;;;;18.80;48.10;;;;;;5001529;28;19913;-54
2022/03/20 07:13:48;;;;;;;;;;;18.80;48.10;;;;;;5001374;28;20019;-52
2022/03/20 07:15:41;;;;;;;;;;;18.70;48.20;;;;;;5001334;28;19921;-56
2022/03/20 07:18:07;;;;;;;;;;;18.80;48.20;;;;;;5001340;28;19917;-51
2022/03/20 07:20:32;;;;;;;;;;;18.80;48.20;;;;;;5001076;28;19913;-53
2022/03/20 07:23:00;;;;;;;;;;;18.80;48.20;;;;;;5000938;28;19921;-53
2022/03/20 07:30:56;;;;;;;;;;;18.80;48.10;;;;;;5001048;28;20373;-52
2022/03/20 07:33:22;;;;;;;;;;;18.80;48.10;;;;;;5000497;28;20020;-53
2022/03/20 07:35:49;;;;;;;;;;;18.80;48.20;;;;;;5000889;28;19996;-55
2022/03/20 07:38:15;;;;;;;;;;;18.80;48.20;;;;;;5000967;28;19984;-53
2022/03/20 07:40:41;;;;;;;;;;;18.70;48.10;;;;;;5000665;28;19913;-52
2022/03/20 07:43:06;;;;;;;;;;;18.70;48.20;;;;;;5000964;28;20305;-54
2022/03/20 07:45:32;;;;;;;;;;;18.80;48.20;;;;;;5001461;28;19913;-52
2022/03/20 07:47:58;;;;;;;;;;;18.80;48.20;;;;;;5001123;28;20373;-51
2022/03/20 07:50:23;;;;;;;;;;;18.70;48.20;;;;;;5000651;28;19921;-53
2022/03/20 07:52:50;;;;;;;;;;;18.80;48.30;;;;;;5001067;28;19940;-55
2022/03/20 07:55:17;;;;;;;;;;;18.80;48.20;;;;;;5001269;28;19940;-55
2022/03/20 07:57:42;;;;;;;;;;;18.70;48.10;;;;;;5001246;28;20084;-52
2022/03/20 08:00:08;;;;;;;;;;;18.70;48.10;;;;;;5001242;28;20613;-53
2022/03/20 08:02:34;;;;;;;;;;;18.70;48.20;;;;;;5000900;28;19920;-54
2022/03/20 08:05:00;;;;;;;;;;;18.70;48.20;;;;;;5001144;28;19917;-52
2022/03/20 08:07:26;;;;;;;;;;;18.70;48.30;;;;;;4999741;28;19967;-54
2022/03/20 08:09:51;;;;;;;;;;;18.70;48.10;;;;;;5000719;28;19914;-55
2022/03/20 08:12:17;;;;;;;;;;;18.70;48.20;;;;;;5000878;28;19921;-51
2022/03/20 08:14:43;;;;;;;;;;;18.70;48.40;;;;;;5000943;28;19913;-51
2022/03/20 08:17:09;;;;;;;;;;;18.70;48.30;;;;;;5000524;28;19941;-55
2022/03/20 08:19:34;;;;;;;;;;;18.60;48.30;;;;;;5000201;28;19913;-54
2022/03/20 08:22:02;;;;;;;;;;;18.70;48.40;;;;;;5001221;28;19920;-51
2022/03/20 08:24:28;;;;;;;;;;;18.70;48.40;;;;;;5000718;28;19929;-53
2022/03/20 08:26:53;;;;;;;;;;;18.70;49.10;;;;;;5000242;28;19917;-51
2022/03/20 08:29:19;;;;;;;;;;;18.60;48.40;;;;;;5000741;28;19920;-51
2022/03/20 08:31:47;;;;;;;;;;;18.60;48.40;;;;;;5000727;28;19922;-54
2022/03/20 08:34:16;;;;;;;;;;;18.70;48.50;;;;;;5000358;28;20362;-54
2022/03/20 08:36:42;;;;;;;;;;;18.60;48.40;;;;;;4983204;28;19944;-54
2022/03/20 08:39:08;;;;;;;;;;;18.60;48.40;;;;;;4999916;28;20374;-54
2022/03/20 08:41:34;;;;;;;;;;;18.60;48.40;;;;;;5000580;28;19929;-55
2022/03/20 08:44:00;;;;;;;;;;;18.60;48.40;;;;;;4999918;28;19913;-51
2022/03/20 08:46:25;;;;;;;;;;;18.70;48.40;;;;;;4999957;28;19914;-50
2022/03/20 08:48:51;;;;;;;;;;;18.60;48.30;;;;;;5021213;22;19974;-56
2022/03/20 08:51:16;;;;;;;;;;;18.60;48.30;;;;;;5018744;28;19919;-56
2022/03/20 08:53:42;;;;;;;;;;;18.60;48.30;;;;;;5018581;28;20569;-57
2022/03/20 08:56:07;;;;;;;;;;;18.60;48.20;;;;;;5019301;28;19998;-51
2022/03/20 08:58:33;;;;;;;;;;;18.70;48.20;;;;;;5018916;28;19913;-57
2022/03/20 09:00:58;;;;;;;;;;;18.60;48.20;;;;;;5018848;28;20332;-55
2022/03/20 09:03:24;;;;;;;;;;;18.60;48.20;;;;;;5018342;28;19913;-56
2022/03/20 09:05:50;;;;;;;;;;;18.60;48.30;;;;;;5018971;28;20043;-54
2022/03/20 09:08:15;;;;;;;;;;;18.60;48.30;;;;;;5018438;28;20004;-56
2022/03/20 09:10:41;;;;;;;;;;;18.60;48.30;;;;;;5018615;28;19923;-55
2022/03/20 09:13:09;;;;;;;;;;;18.60;48.40;;;;;;5016837;28;20271;-57
2022/03/20 09:15:35;;;;;;;;;;;18.60;48.30;;;;;;5014895;28;19933;-58
2022/03/20 09:20:44;;;;;;;;;;;18.60;48.60;;;;;;5017094;28;19923;-56
2022/03/20 09:23:10;;;;;;;;;;;18.60;48.90;;;;;;5016835;28;20083;-58
2022/03/20 09:25:36;;;;;;;;;;;18.60;49.20;;;;;;5017802;28;19970;-57
2022/03/20 09:28:02;;;;;;;;;;;18.60;49.50;;;;;;5018496;28;19921;-58
2022/03/20 09:30:28;;;;;;;;;;;18.70;49.60;;;;;;5018814;28;19921;-58
2022/03/20 09:32:56;;;;;;;;;;;18.70;49.80;;;;;;5018309;28;19918;-58
2022/03/20 09:35:22;;;;;;;;;;;18.70;49.80;;;;;;5019905;28;19921;-57
2022/03/20 09:37:47;;;;;;;;;;;18.70;49.80;;;;;;5019811;28;19921;-55
2022/03/20 09:40:13;;;;;;;;;;;18.70;49.80;;;;;;5019685;28;19913;-55
2022/03/20 09:42:39;;;;;;;;;;;18.70;49.80;;;;;;5019850;28;20558;-56
2022/03/20 09:45:05;;;;;;;;;;;18.70;49.60;;;;;;5000689;28;20016;-57
2022/03/20 09:47:34;;;;;;;;;;;18.70;49.80;;;;;;5020872;28;19913;-57
2022/03/20 09:49:59;;;;;;;;;;;18.70;49.80;;;;;;5020054;28;20401;-58
2022/03/20 09:52:25;;;;;;;;;;;18.70;49.90;;;;;;5019236;28;19917;-56
2022/03/20 09:54:51;;;;;;;;;;;18.70;50.10;;;;;;5019752;28;20066;-56
2022/03/20 09:57:16;;;;;;;;;;;18.70;50.70;;;;;;4992849;28;20289;-57
2022/03/20 09:59:42;;;;;;;;;;;18.70;50.90;;;;;;5019758;28;19920;-57
2022/03/20 10:02:08;;;;;;;;;;;18.70;51.20;;;;;;5022796;28;20099;-53
2022/03/20 10:04:53;;;;;;;;;;;18.70;51.10;;;;;;5023952;28;19914;-58
2022/03/20 10:07:21;;;;;;;;;;;18.70;51.10;;;;;;5022669;28;20058;-57
2022/03/20 10:10:04;;;;;;;;;;;18.60;50.90;;;;;;5022249;28;19982;-57
2022/03/20 10:12:30;;;;;;;;;;;18.60;50.90;;;;;;5022456;28;19956;-57
2022/03/20 10:14:56;;;;;;;;;;;18.60;50.90;;;;;;5022951;28;19920;-57
2022/03/20 10:17:21;;;;;;;;;;;18.50;51.10;;;;;;5022476;28;19913;-56
2022/03/20 10:19:47;;;;;;;;;;;18.50;51.30;;;;;;5022829;28;19963;-55
2022/03/20 10:22:14;;;;;;;;;;;18.60;51.00;;;;;;5022893;28;19913;-57
2022/03/20 10:24:44;;;;;;;;;;;18.60;51.00;;;;;;5023542;28;20591;-57
2022/03/20 10:27:10;;;;;;;;;;;18.60;50.90;;;;;;5005252;28;19914;-56
2022/03/20 10:29:36;;;;;;;;;;;18.60;50.70;;;;;;5022852;28;20285;-56
2022/03/20 10:32:05;;;;;;;;;;;18.60;50.50;;;;;;5005504;28;19927;-55
2022/03/20 10:34:32;;;;;;;;;;;18.60;50.10;;;;;;5023074;28;19913;-57
2022/03/20 10:36:57;;;;;;;;;;;18.60;50.00;;;;;;5006208;28;19917;-57
2022/03/20 10:39:26;;;;;;;;;;;18.60;49.80;;;;;;5022521;28;19920;-57
2022/03/20 10:41:56;;;;;;;;;;;18.60;49.80;;;;;;5023145;28;19967;-58
2022/03/20 10:44:25;;;;;;;;;;;18.70;49.80;;;;;;5022500;28;19917;-57
2022/03/20 10:46:57;;;;;;;;;;;18.70;49.80;;;;;;5022416;28;19913;-55
2022/03/20 10:49:22;;;;;;;;;;;18.70;49.70;;;;;;5021534;28;19932;-55
2022/03/20 10:52:07;;;;;;;;;;;18.80;49.70;;;;;;5004594;28;20005;-57
2022/03/20 10:54:42;;;;;;;;;;;18.80;49.70;;;;;;5022500;28;20139;-57
2022/03/20 10:57:08;;;;;;;;;;;18.90;49.60;;;;;;5006057;28;19914;-55
2022/03/20 10:59:34;;;;;;;;;;;18.90;49.70;;;;;;5006940;28;19972;-57
2022/03/20 11:02:00;;;;;;;;;;;18.90;49.60;;;;;;5023781;28;19921;-55
2022/03/20 11:04:25;;;;;;;;;;;18.90;49.50;;;;;;5021453;28;19913;-56
2022/03/20 11:06:54;;;;;;;;;;;19.00;49.40;;;;;;5021327;28;20349;-55
2022/03/20 11:09:19;;;;;;;;;;;19.00;49.10;;;;;;5020276;28;19917;-56
2022/03/20 11:11:52;;;;;;;;;;;19.00;49.00;;;;;;5020907;28;19917;-55
2022/03/20 11:14:19;;;;;;;;;;;19.00;48.70;;;;;;5020091;28;19913;-57
2022/03/20 11:16:46;;;;;;;;;;;19.00;48.40;;;;;;5020636;28;19917;-54
2022/03/20 11:19:12;;;;;;;;;;;19.00;48.10;;;;;;5020011;28;19924;-57
2022/03/20 11:21:38;;;;;;;;;;;19.00;47.90;;;;;;5020456;28;19921;-56
2022/03/20 11:24:04;;;;;;;;;;;19.10;47.90;;;;;;5003185;28;19970;-55
2022/03/20 11:26:30;;;;;;;;;;;19.10;47.90;;;;;;5002945;28;19917;-57
2022/03/20 11:28:59;;;;;;;;;;;19.10;47.80;;;;;;5002038;28;19917;-56
2022/03/20 11:31:25;;;;;;;;;;;19.10;47.80;;;;;;5020248;28;19913;-55
2022/03/20 11:33:50;;;;;;;;;;;19.10;47.80;;;;;;5002658;28;19913;-57
2022/03/20 11:36:16;;;;;;;;;;;19.10;47.90;;;;;;5020578;28;19935;-54
2022/03/20 11:38:42;;;;;;;;;;;19.10;48.00;;;;;;5019793;28;20096;-56
2022/03/20 11:41:10;;;;;;;;;;;19.10;48.00;;;;;;5020892;28;19913;-55
2022/03/20 11:43:36;;;;;;;;;;;19.10;48.00;;;;;;5019847;28;20025;-59
2022/03/20 11:46:16;;;;;;;;;;;19.10;48.10;;;;;;5018675;28;20428;-54
2022/03/20 11:48:42;;;;;;;;;;;19.10;48.20;;;;;;5014974;28;20086;-55
2022/03/20 11:51:08;;;;;;;;;;;19.20;48.20;;;;;;5017483;28;20444;-56
2022/03/20 11:53:37;;;;;;;;;;;19.20;48.30;;;;;;5003331;28;20435;-56
2022/03/20 11:56:02;;;;;;;;;;;19.20;48.30;;;;;;5016050;28;19924;-57
2022/03/20 11:58:34;;;;;;;;;;;19.20;48.30;;;;;;5002829;28;19913;-56
2022/03/20 12:01:03;;;;;;;;;;;19.20;48.30;;;;;;4998560;28;19917;-57
2022/03/20 12:03:47;;;;;;;;;;;19.20;48.30;;;;;;5006096;28;19914;-54
2022/03/20 12:06:33;;;;;;;;;;;19.10;48.20;;;;;;5019610;28;19920;-57
2022/03/20 12:09:17;;;;;;;;;;;19.20;48.30;;;;;;4988652;28;19925;-55
2022/03/20 12:11:54;;;;;;;;;;;19.20;48.20;;;;;;5019723;28;19960;-56
2022/03/20 12:14:32;;;;;;;;;;;19.20;48.30;;;;;;5005669;28;19917;-55
2022/03/20 12:16:58;;;;;;;;;;;19.20;48.30;;;;;;5020416;28;19913;-55
2022/03/20 12:19:43;;;;;;;;;;;19.10;48.30;;;;;;4984727;28;19979;-57
2022/03/20 12:22:15;;;;;;;;;;;19.20;48.30;;;;;;5003610;28;19920;-54
2022/03/20 12:24:49;;;;;;;;;;;19.20;48.30;;;;;;5002108;28;19919;-56
2022/03/20 12:27:24;;;;;;;;;;;19.30;48.40;;;;;;5016592;28;20390;-57
2022/03/20 12:29:58;;;;;;;;;;;19.30;48.40;;;;;;5003087;28;19913;-54
2022/03/20 12:32:24;;;;;;;;;;;19.30;48.40;;;;;;5013311;28;19939;-56
2022/03/20 12:34:56;;;;;;;;;;;19.30;49.00;;;;;;5019338;28;20370;-55
2022/03/20 12:37:27;;;;;;;;;;;19.30;48.30;;;;;;5014573;28;20718;-56
2022/03/20 12:39:54;;;;;;;;;;;19.30;48.50;;;;;;5018955;28;19971;-57
2022/03/20 12:42:20;;;;;;;;;;;19.30;48.40;;;;;;5014928;28;19949;-54
2022/03/20 12:44:50;;;;;;;;;;;19.30;48.50;;;;;;5019649;28;19961;-56
2022/03/20 12:47:19;;;;;;;;;;;19.30;48.50;;;;;;4997937;28;19913;-57
2022/03/20 12:49:46;;;;;;;;;;;19.30;48.40;;;;;;5018834;28;20560;-55
2022/03/20 12:52:11;;;;;;;;;;;19.30;48.50;;;;;;5016058;28;19924;-56
2022/03/20 12:54:36;;;;;;;;;;;19.30;48.50;;;;;;5001130;28;19913;-56
2022/03/20 12:57:04;;;;;;;;;;;19.30;48.60;;;;;;4996739;28;19944;-54
2022/03/20 12:59:29;;;;;;;;;;;19.30;48.80;;;;;;5018967;28;19924;-55
2022/03/20 13:01:55;;;;;;;;;;;19.30;49.00;;;;;;5020350;28;19913;-57
2022/03/20 13:04:21;;;;;;;;;;;19.30;49.50;;;;;;5016228;28;20696;-57
2022/03/20 13:06:46;;;;;;;;;;;19.30;50.20;;;;;;5019981;28;20024;-57
2022/03/20 13:09:12;;;;;;;;;;;19.30;50.50;;;;;;5014708;28;19913;-56
2022/03/20 13:11:53;;;;;;;;;;;19.30;51.00;;;;;;5020709;28;20011;-57
2022/03/20 13:14:19;;;;;;;;;;;19.30;51.20;;;;;;5013840;28;19913;-57
2022/03/20 13:16:47;;;;;;;;;;;19.30;51.40;;;;;;5019715;28;20012;-56
2022/03/20 13:19:23;;;;;;;;;;;19.30;51.70;;;;;;5013694;28;19920;-56
2022/03/20 13:21:49;;;;;;;;;;;19.30;51.90;;;;;;5000839;28;19923;-57
2022/03/20 13:24:25;;;;;;;;;;;19.30;52.30;;;;;;5012940;28;20016;-56
2022/03/20 13:26:57;;;;;;;;;;;19.30;52.80;;;;;;5018973;28;20374;-57
2022/03/20 13:29:23;;;;;;;;;;;19.30;53.10;;;;;;5013202;28;19975;-55
2022/03/20 13:32:21;;;;;;;;;;;19.30;53.30;;;;;;5017880;28;20610;-52
2022/03/20 13:34:47;;;;;;;;;;;19.30;53.30;;;;;;4958668;28;19921;-57
2022/03/20 13:37:13;;;;;;;;;;;19.30;53.30;;;;;;5005496;28;20625;-55
2022/03/20 13:39:50;;;;;;;;;;;19.30;53.10;;;;;;5021718;28;19917;-56
2022/03/20 13:42:17;;;;;;;;;;;19.30;52.90;;;;;;5021277;28;19913;-55
2022/03/20 13:44:42;;;;;;;;;;;19.30;52.60;;;;;;5022235;28;20390;-56
2022/03/20 13:47:09;;;;;;;;;;;19.30;52.30;;;;;;5023050;28;19959;-56
2022/03/20 13:49:35;;;;;;;;;;;19.30;52.20;;;;;;5019593;28;19921;-55
2022/03/20 13:52:00;;;;;;;;;;;19.30;52.80;;;;;;5022172;28;20373;-57
2022/03/20 13:54:26;;;;;;;;;;;19.20;52.80;;;;;;5004734;28;19914;-52
2022/03/20 13:57:08;;;;;;;;;;;19.20;52.30;;;;;;5021557;28;19951;-55
2022/03/20 13:59:53;;;;;;;;;;;19.10;51.90;;;;;;5021829;28;19913;-55
2022/03/20 14:02:20;;;;;;;;;;;19.10;51.40;;;;;;5021802;28;19974;-56
2022/03/20 14:04:46;;;;;;;;;;;19.10;49.90;;;;;;5021832;28;19913;-54
2022/03/20 14:07:19;;;;;;;;;;;19.10;50.30;;;;;;5021467;28;20741;-56
2022/03/20 14:09:44;;;;;;;;;;;19.10;51.00;;;;;;5020977;28;19956;-56
2022/03/20 14:12:19;;;;;;;;;;;19.20;50.80;;;;;;5021663;28;20510;-57
2022/03/20 14:14:46;;;;;;;;;;;19.20;51.00;;;;;;5021496;28;20648;-57
2022/03/20 14:17:11;;;;;;;;;;;19.30;50.60;;;;;;5022004;28;19917;-56
2022/03/20 14:19:43;;;;;;;;;;;19.30;50.20;;;;;;5020941;28;20526;-55
2022/03/20 14:22:09;;;;;;;;;;;19.30;50.10;;;;;;5021419;28;20715;-57
2022/03/20 14:25:00;;;;;;;;;;;19.40;50.00;;;;;;5021189;28;19921;-57
2022/03/20 14:27:29;;;;;;;;;;;19.30;49.80;;;;;;5022294;28;19921;-55
2022/03/20 14:40:55;;;;;;;;;;;19.40;49.50;;;;;;5022194;28;19920;-57
2022/03/20 14:43:26;;;;;;;;;;;19.40;49.90;;;;;;5021656;28;19921;-56
2022/03/20 14:46:00;;;;;;;;;;;19.40;49.90;;;;;;5021327;28;19921;-55
2022/03/20 14:48:29;;;;;;;;;;;19.40;49.80;;;;;;5021302;28;19929;-58
2022/03/20 14:50:54;;;;;;;;;;;19.30;49.60;;;;;;5021518;28;19924;-57
2022/03/20 14:53:21;;;;;;;;;;;19.30;50.00;;;;;;5021312;28;20304;-57
2022/03/20 14:55:46;;;;;;;;;;;19.30;49.20;;;;;;5021250;28;20390;-57
2022/03/20 14:58:11;;;;;;;;;;;19.30;48.90;;;;;;5021444;28;19966;-56
2022/03/20 15:00:37;;;;;;;;;;;19.30;48.70;;;;;;5021173;28;20440;-57
2022/03/20 15:03:02;;;;;;;;;;;19.30;48.30;;;;;;5021059;28;19913;-57
2022/03/20 15:05:28;;;;;;;;;;;19.40;48.20;;;;;;5021296;28;19963;-57